Time;durP1;ratioP1;P1;durP2;ratioP2;P2;SDS_P1;SDS_P2;PMS_P1;PMS_P2;Temp;Humidity;BMP_temperature;BMP_pressure;BME280_temperature;BME280_humidity;BME280_pressure;Samples;Min_cycle;Max_cycle;Signal;HPM_P1;HPM_P2
2023/08/18 00:03:32;;;;;;;5.82;2.60;;;;;;;;;;10520246;28;20114;-81
2023/08/18 00:08:47;;;;;;;2.78;2.00;;;;;;;;;;10521662;28;20127;-81
2023/08/18 00:14:08;;;;;;;3.03;2.10;;;;;;;;;;10523261;28;20052;-81
2023/08/18 00:19:19;;;;;;;4.20;2.25;;;;;;;;;;10490002;28;20052;-82
2023/08/18 00:24:35;;;;;;;4.65;2.70;;;;;;;;;;10522803;28;20048;-83
2023/08/18 00:29:39;;;;;;;3.13;2.20;;;;;;;;;;10506583;28;20042;-83
2023/08/18 00:34:46;;;;;;;2.38;1.63;;;;;;;;;;10494300;28;20043;-83
2023/08/18 00:39:54;;;;;;;7.93;2.60;;;;;;;;;;10499777;28;20036;-83
2023/08/18 00:45:09;;;;;;;5.32;2.72;;;;;;;;;;10512495;28;20120;-83
2023/08/18 00:50:24;;;;;;;8.02;2.80;;;;;;;;;;10492825;28;20076;-83
2023/08/18 00:55:31;;;;;;;4.63;2.60;;;;;;;;;;10505831;28;20036;-83
2023/08/18 01:00:40;;;;;;;5.28;2.60;;;;;;;;;;10507431;28;20173;-83
2023/08/18 01:05:49;;;;;;;5.35;2.40;;;;;;;;;;10536289;28;20320;-82
2023/08/18 01:10:57;;;;;;;4.05;2.47;;;;;;;;;;10548269;28;20547;-81
2023/08/18 01:16:03;;;;;;;2.17;1.67;;;;;;;;;;10576826;28;20046;-82
2023/08/18 01:21:12;;;;;;;5.30;1.67;;;;;;;;;;10554265;28;20076;-80
2023/08/18 01:26:30;;;;;;;5.47;2.78;;;;;;;;;;10558703;28;20047;-80
2023/08/18 01:31:44;;;;;;;5.88;2.92;;;;;;;;;;10528004;28;20074;-79
2023/08/18 01:36:51;;;;;;;4.75;2.42;;;;;;;;;;10513398;28;20119;-78
2023/08/18 01:42:02;;;;;;;4.75;2.80;;;;;;;;;;10516626;28;20032;-77
2023/08/18 01:47:11;;;;;;;3.53;2.17;;;;;;;;;;10513299;28;20039;-77
2023/08/18 01:52:20;;;;;;;4.00;2.40;;;;;;;;;;10518923;28;20050;-77
2023/08/18 01:57:27;;;;;;;3.13;2.08;;;;;;;;;;10527530;28;20040;-76
2023/08/18 02:02:36;;;;;;;4.20;2.28;;;;;;;;;;10518670;28;20500;-76
2023/08/18 02:07:40;;;;;;;6.18;2.50;;;;;;;;;;10503337;28;20050;-76
2023/08/18 02:12:48;;;;;;;5.22;2.78;;;;;;;;;;10520223;28;20056;-76
2023/08/18 02:17:53;;;;;;;4.15;2.50;;;;;;;;;;10512205;28;20125;-76
2023/08/18 02:23:08;;;;;;;3.45;2.00;;;;;;;;;;10526399;28;20105;-75
2023/08/18 02:28:27;;;;;;;5.23;2.50;;;;;;;;;;10522819;28;20481;-75
2023/08/18 02:33:31;;;;;;;6.00;2.85;;;;;;;;;;10491098;28;20049;-75
2023/08/18 02:38:37;;;;;;;4.70;2.63;;;;;;;;;;10516529;28;20146;-75
2023/08/18 02:43:50;;;;;;;5.80;2.30;;;;;;;;;;10523084;28;20043;-76
2023/08/18 02:49:00;;;;;;;4.28;2.40;;;;;;;;;;10518017;28;20088;-76
2023/08/18 02:54:07;;;;;;;5.03;2.60;;;;;;;;;;10513691;28;20059;-77
2023/08/18 02:59:17;;;;;;;3.90;2.35;;;;;;;;;;10517109;28;20043;-77
2023/08/18 03:04:23;;;;;;;4.68;2.60;;;;;;;;;;10518969;28;20039;-77
2023/08/18 03:09:29;;;;;;;4.72;2.80;;;;;;;;;;10517762;28;20040;-77
2023/08/18 03:14:37;;;;;;;4.47;2.83;;;;;;;;;;10497360;28;20098;-77
2023/08/18 03:19:42;;;;;;;11.05;4.40;;;;;;;;;;10514181;28;20048;-77
2023/08/18 03:24:53;;;;;;;6.22;2.65;;;;;;;;;;10529287;28;20128;-77
2023/08/18 03:30:07;;;;;;;5.75;2.92;;;;;;;;;;10508474;28;20714;-76
2023/08/18 03:35:12;;;;;;;5.72;2.75;;;;;;;;;;10529015;28;20428;-77
2023/08/18 03:40:16;;;;;;;4.47;2.60;;;;;;;;;;10533061;28;20035;-75
2023/08/18 03:45:28;;;;;;;3.53;2.05;;;;;;;;;;10544623;28;20059;-76
2023/08/18 03:50:41;;;;;;;3.92;2.42;;;;;;;;;;10522376;28;20051;-77
2023/08/18 03:55:56;;;;;;;4.72;2.63;;;;;;;;;;10538653;28;20036;-76
2023/08/18 04:01:10;;;;;;;4.28;2.60;;;;;;;;;;10537474;28;20073;-76
2023/08/18 04:06:31;;;;;;;4.78;2.78;;;;;;;;;;10526677;28;20028;-76
2023/08/18 04:11:39;;;;;;;5.90;2.72;;;;;;;;;;10529097;28;20397;-76
2023/08/18 04:16:46;;;;;;;4.57;2.50;;;;;;;;;;10506533;28;20066;-76
2023/08/18 04:21:54;;;;;;;4.32;2.83;;;;;;;;;;10533348;28;20063;-76
2023/08/18 04:27:01;;;;;;;8.90;2.90;;;;;;;;;;10532128;28;20070;-76
2023/08/18 04:32:07;;;;;;;4.10;2.40;;;;;;;;;;10512567;28;20044;-76
2023/08/18 04:37:13;;;;;;;4.22;2.60;;;;;;;;;;10509549;28;20044;-79
2023/08/18 04:42:19;;;;;;;5.43;2.70;;;;;;;;;;10527074;28;20154;-77
2023/08/18 04:47:23;;;;;;;;;;;;;;;;;;10523136;28;20048;-77
2023/08/18 04:52:34;;;;;;;7.35;2.60;;;;;;;;;;10529780;28;19924;-76
2023/08/18 04:57:39;;;;;;;4.25;2.70;;;;;;;;;;10523931;28;20058;-77
2023/08/18 05:02:45;;;;;;;6.93;2.40;;;;;;;;;;10503823;28;20179;-77
2023/08/18 05:08:01;;;;;;;4.13;2.60;;;;;;;;;;10503880;28;20052;-76
2023/08/18 05:13:19;;;;;;;6.65;3.03;;;;;;;;;;10499832;28;20045;-77
2023/08/18 05:18:29;;;;;;;4.82;2.63;;;;;;;;;;10512071;28;20036;-77
2023/08/18 05:23:38;;;;;;;5.65;2.67;;;;;;;;;;10525064;28;20056;-76
2023/08/18 05:28:44;;;;;;;5.85;2.60;;;;;;;;;;10527215;28;20123;-77
2023/08/18 05:33:54;;;;;;;6.75;2.88;;;;;;;;;;10502430;28;20037;-77
2023/08/18 05:39:08;;;;;;;4.18;2.47;;;;;;;;;;10520663;28;20757;-77
2023/08/18 05:44:15;;;;;;;6.88;3.13;;;;;;;;;;10500385;28;20450;-77
2023/08/18 05:49:19;;;;;;;4.88;2.50;;;;;;;;;;10522953;28;20049;-79
2023/08/18 05:54:26;;;;;;;3.60;2.50;;;;;;;;;;10496905;28;20051;-77
2023/08/18 05:59:40;;;;;;;4.20;2.50;;;;;;;;;;10520895;28;20040;-78
2023/08/18 06:04:43;;;;;;;6.50;2.97;;;;;;;;;;10481269;28;20052;-77
2023/08/18 06:09:50;;;;;;;7.85;3.10;;;;;;;;;;10521890;28;20540;-76
2023/08/18 06:14:56;;;;;;;6.05;2.78;;;;;;;;;;10487187;28;20575;-75
2023/08/18 06:20:01;;;;;;;3.75;2.40;;;;;;;;;;10498094;28;20123;-76
2023/08/18 06:25:07;;;;;;;5.18;2.60;;;;;;;;;;10492369;28;20445;-76
2023/08/18 06:30:12;;;;;;;5.70;2.40;;;;;;;;;;10520752;28;20105;-76
2023/08/18 06:35:20;;;;;;;7.13;2.45;;;;;;;;;;10503240;28;20503;-76
2023/08/18 06:40:30;;;;;;;5.60;2.53;;;;;;;;;;10469270;28;20056;-76
2023/08/18 06:45:38;;;;;;;3.83;2.20;;;;;;;;;;10506037;28;20040;-76
2023/08/18 06:50:52;;;;;;;5.68;2.30;;;;;;;;;;10508678;28;20040;-77
2023/08/18 06:55:58;;;;;;;6.63;2.10;;;;;;;;;;10514363;28;20046;-76
2023/08/18 07:01:13;;;;;;;4.40;2.10;;;;;;;;;;10494992;28;20101;-76
2023/08/18 07:06:31;;;;;;;6.10;2.67;;;;;;;;;;10494533;28;20624;-76
2023/08/18 07:11:51;;;;;;;3.17;2.15;;;;;;;;;;10532124;27;20465;-75
2023/08/18 07:16:54;;;;;;;6.78;2.40;;;;;;;;;;10509399;28;20044;-77
2023/08/18 07:21:57;;;;;;;3.15;2.10;;;;;;;;;;10509991;28;20226;-77
2023/08/18 07:26:59;;;;;;;;;;;;;;;;;;10504737;28;20043;-75
2023/08/18 07:32:04;;;;;;;2.95;2.08;;;;;;;;;;10508506;28;19934;-75
2023/08/18 07:37:06;;;;;;;2.10;1.90;;;;;;;;;;10507586;28;20127;-75
2023/08/18 07:42:09;;;;;;;2.10;1.67;;;;;;;;;;10506369;28;20143;-81
2023/08/18 07:47:13;;;;;;;2.50;1.65;;;;;;;;;;10514188;28;20051;-77
2023/08/18 07:52:16;;;;;;;4.30;2.25;;;;;;;;;;10509542;28;20110;-77
2023/08/18 07:57:18;;;;;;;4.72;2.08;;;;;;;;;;10507772;28;20579;-77
2023/08/18 08:02:22;;;;;;;3.03;2.05;;;;;;;;;;10511695;28;20052;-77
2023/08/18 08:07:32;;;;;;;3.35;2.03;;;;;;;;;;10506214;28;20048;-78
2023/08/18 08:12:36;;;;;;;3.72;2.00;;;;;;;;;;10509850;28;20131;-77
2023/08/18 08:17:40;;;;;;;5.10;1.92;;;;;;;;;;10513412;28;20051;-78
2023/08/18 08:22:43;;;;;;;5.60;2.08;;;;;;;;;;10480854;28;20049;-78
2023/08/18 08:27:46;;;;;;;2.47;1.85;;;;;;;;;;10483315;28;20127;-78
2023/08/18 08:32:50;;;;;;;2.70;2.22;;;;;;;;;;10485078;28;20132;-78
2023/08/18 08:37:52;;;;;;;3.45;2.15;;;;;;;;;;10485152;28;20052;-78
2023/08/18 08:42:56;;;;;;;3.28;1.85;;;;;;;;;;10491413;28;20040;-77
2023/08/18 08:48:06;;;;;;;5.22;2.08;;;;;;;;;;10481830;28;20048;-78
2023/08/18 08:53:11;;;;;;;2.15;1.95;;;;;;;;;;10481632;28;20056;-77
2023/08/18 08:58:14;;;;;;;2.95;2.13;;;;;;;;;;10472743;28;20037;-77
2023/08/18 09:03:18;;;;;;;3.90;2.10;;;;;;;;;;10483834;28;20064;-76
2023/08/18 09:08:22;;;;;;;2.50;2.22;;;;;;;;;;10487334;28;20596;-77
2023/08/18 09:13:27;;;;;;;4.82;2.45;;;;;;;;;;10492172;28;20109;-77
2023/08/18 09:18:33;;;;;;;7.70;2.00;;;;;;;;;;10489654;28;20044;-77
2023/08/18 09:23:35;;;;;;;2.53;2.22;;;;;;;;;;10492296;28;20068;-77
2023/08/18 09:28:38;;;;;;;3.35;2.30;;;;;;;;;;10488254;28;20477;-76
2023/08/18 09:33:42;;;;;;;4.18;2.72;;;;;;;;;;10491545;28;20045;-81
2023/08/18 09:38:45;;;;;;;3.97;2.42;;;;;;;;;;10497952;28;20041;-80
2023/08/18 09:43:48;;;;;;;3.15;2.50;;;;;;;;;;10504389;28;20051;-81
2023/08/18 09:48:53;;;;;;;3.20;2.40;;;;;;;;;;10519936;28;20036;-78
2023/08/18 09:53:58;;;;;;;4.28;2.80;;;;;;;;;;10524696;28;20028;-80
2023/08/18 09:59:04;;;;;;;2.85;2.65;;;;;;;;;;10527043;28;20050;-80
2023/08/18 10:04:10;;;;;;;3.13;2.35;;;;;;;;;;10514308;28;20486;-81
2023/08/18 10:09:13;;;;;;;6.10;2.60;;;;;;;;;;10503616;28;20067;-80
2023/08/18 10:14:16;;;;;;;3.22;2.78;;;;;;;;;;10505762;28;20417;-78
2023/08/18 10:19:34;;;;;;;2.70;2.50;;;;;;;;;;10493774;28;20040;-76
2023/08/18 10:24:38;;;;;;;3.47;2.97;;;;;;;;;;10501776;28;20044;-77
2023/08/18 10:29:44;;;;;;;3.10;2.40;;;;;;;;;;10499532;28;20040;-77
2023/08/18 10:34:47;;;;;;;3.20;2.42;;;;;;;;;;10485965;28;20109;-77
2023/08/18 10:39:52;;;;;;;4.65;3.28;;;;;;;;;;10490672;28;20060;-78
2023/08/18 10:44:58;;;;;;;3.75;3.08;;;;;;;;;;10499969;28;20555;-77
2023/08/18 10:50:04;;;;;;;3.80;3.30;;;;;;;;;;10494419;28;20042;-79
2023/08/18 10:55:08;;;;;;;3.13;2.70;;;;;;;;;;10486903;28;20670;-78
2023/08/18 11:00:12;;;;;;;2.85;2.55;;;;;;;;;;10488435;28;20060;-78
2023/08/18 11:05:14;;;;;;;3.60;2.72;;;;;;;;;;10482154;28;20047;-78
2023/08/18 11:10:19;;;;;;;2.65;2.40;;;;;;;;;;10495778;28;20520;-78
2023/08/18 11:15:23;;;;;;;3.50;2.40;;;;;;;;;;10480971;28;20045;-76
2023/08/18 11:20:26;;;;;;;2.95;2.45;;;;;;;;;;10488367;28;20474;-78
2023/08/18 11:25:31;;;;;;;3.60;2.75;;;;;;;;;;10479609;28;20048;-79
2023/08/18 11:30:33;;;;;;;2.88;2.40;;;;;;;;;;10476521;28;20502;-77
2023/08/18 11:35:36;;;;;;;3.53;2.45;;;;;;;;;;10479846;28;20534;-77
2023/08/18 11:40:42;;;;;;;2.88;2.67;;;;;;;;;;10483404;28;20413;-79
2023/08/18 11:45:45;;;;;;;2.70;2.50;;;;;;;;;;10477319;28;20463;-78
2023/08/18 11:50:48;;;;;;;2.88;2.63;;;;;;;;;;10471459;28;20524;-78
2023/08/18 11:55:52;;;;;;;4.03;2.80;;;;;;;;;;10482757;28;20044;-77
2023/08/18 12:00:55;;;;;;;3.67;2.30;;;;;;;;;;10487153;28;20055;-77
2023/08/18 12:05:58;;;;;;;3.05;2.55;;;;;;;;;;10487036;28;20086;-78
2023/08/18 12:11:03;;;;;;;3.33;2.55;;;;;;;;;;10492063;28;20040;-78
2023/08/18 12:16:06;;;;;;;2.72;2.38;;;;;;;;;;10486611;28;20044;-78
2023/08/18 12:21:08;;;;;;;2.95;2.25;;;;;;;;;;10480085;28;20044;-78
2023/08/18 12:26:17;;;;;;;3.22;2.40;;;;;;;;;;10478176;28;20041;-76
2023/08/18 12:31:24;;;;;;;2.88;2.40;;;;;;;;;;10485526;28;20037;-77
2023/08/18 12:36:27;;;;;;;2.33;2.13;;;;;;;;;;10483172;28;20033;-77
2023/08/18 12:41:32;;;;;;;4.05;2.70;;;;;;;;;;10482824;28;20063;-79
2023/08/18 12:46:35;;;;;;;2.45;2.35;;;;;;;;;;10483189;28;20040;-78
2023/08/18 12:51:39;;;;;;;3.40;2.38;;;;;;;;;;10479300;28;20036;-79
2023/08/18 12:56:44;;;;;;;2.47;2.28;;;;;;;;;;10481533;28;20064;-78
2023/08/18 13:01:46;;;;;;;2.63;2.30;;;;;;;;;;10469590;28;20397;-78
2023/08/18 13:06:49;;;;;;;2.45;2.25;;;;;;;;;;10495412;28;20191;-80
2023/08/18 13:11:53;;;;;;;3.45;2.28;;;;;;;;;;10481495;28;20096;-79
2023/08/18 13:16:59;;;;;;;4.38;2.20;;;;;;;;;;10479427;28;20605;-79
2023/08/18 13:22:06;;;;;;;3.75;2.30;;;;;;;;;;10477358;28;20052;-77
2023/08/18 13:27:11;;;;;;;3.22;2.22;;;;;;;;;;10481372;28;20055;-78
2023/08/18 13:32:13;;;;;;;3.85;2.40;;;;;;;;;;10481736;28;20545;-78
2023/08/18 13:37:16;;;;;;;4.10;2.30;;;;;;;;;;10497775;28;20616;-77
2023/08/18 13:42:21;;;;;;;2.88;2.10;;;;;;;;;;10478437;28;20037;-78
2023/08/18 13:47:25;;;;;;;4.05;2.42;;;;;;;;;;10479732;28;20126;-77
2023/08/18 13:52:28;;;;;;;4.07;2.40;;;;;;;;;;10482594;28;20302;-78
2023/08/18 13:57:33;;;;;;;2.40;2.08;;;;;;;;;;10481147;28;20548;-78
2023/08/18 14:02:35;;;;;;;4.18;2.08;;;;;;;;;;10480848;28;20040;-77
2023/08/18 14:07:38;;;;;;;3.10;2.05;;;;;;;;;;10480047;28;20041;-77
2023/08/18 14:12:45;;;;;;;3.67;2.17;;;;;;;;;;10472514;28;20048;-78
2023/08/18 14:17:48;;;;;;;3.95;2.22;;;;;;;;;;10480365;28;20120;-78
2023/08/18 14:22:54;;;;;;;4.65;2.22;;;;;;;;;;10481873;28;20044;-77
2023/08/18 14:27:58;;;;;;;3.47;2.20;;;;;;;;;;10482355;28;20072;-77
2023/08/18 14:33:01;;;;;;;6.53;2.60;;;;;;;;;;10476704;28;20040;-77
2023/08/18 14:38:04;;;;;;;5.68;2.30;;;;;;;;;;10470953;28;20433;-77
2023/08/18 14:43:08;;;;;;;3.28;2.20;;;;;;;;;;10486295;28;20047;-78
2023/08/18 14:48:19;;;;;;;4.07;2.30;;;;;;;;;;10480021;28;20041;-78
2023/08/18 14:53:22;;;;;;;3.85;2.33;;;;;;;;;;10482122;28;20135;-78
2023/08/18 14:58:27;;;;;;;5.13;2.35;;;;;;;;;;10483300;28;20040;-76
2023/08/18 15:03:30;;;;;;;3.40;2.22;;;;;;;;;;10478849;28;20090;-77
2023/08/18 15:08:33;;;;;;;4.00;2.20;;;;;;;;;;10484462;28;20056;-77
2023/08/18 15:13:38;;;;;;;4.03;2.63;;;;;;;;;;10484340;28;20064;-77
2023/08/18 15:18:40;;;;;;;4.22;2.47;;;;;;;;;;10480484;28;20067;-77
2023/08/18 15:23:43;;;;;;;4.97;2.47;;;;;;;;;;10481190;28;20142;-77
2023/08/18 15:28:47;;;;;;;3.55;2.20;;;;;;;;;;10483600;28;20089;-77
2023/08/18 15:33:50;;;;;;;3.75;2.35;;;;;;;;;;10489188;28;20037;-76
2023/08/18 15:38:53;;;;;;;3.35;1.95;;;;;;;;;;10493206;28;20050;-76
2023/08/18 15:43:57;;;;;;;2.90;2.22;;;;;;;;;;10491582;28;20543;-76
2023/08/18 15:49:00;;;;;;;3.45;1.90;;;;;;;;;;10494195;28;20044;-76
2023/08/18 15:54:03;;;;;;;6.78;2.33;;;;;;;;;;10495474;28;20044;-76
2023/08/18 15:59:08;;;;;;;3.72;2.33;;;;;;;;;;10493031;28;20573;-77
2023/08/18 16:04:10;;;;;;;3.83;2.20;;;;;;;;;;10486889;28;20036;-76
2023/08/18 16:09:13;;;;;;;2.92;2.10;;;;;;;;;;10490548;28;20047;-76
2023/08/18 16:14:20;;;;;;;5.43;2.25;;;;;;;;;;10491404;28;20094;-76
2023/08/18 16:19:29;;;;;;;3.65;2.45;;;;;;;;;;10488057;28;20237;-76
2023/08/18 16:24:32;;;;;;;4.30;2.42;;;;;;;;;;10491586;28;20065;-76
2023/08/18 16:29:36;;;;;;;4.55;2.45;;;;;;;;;;10490979;28;20390;-76
2023/08/18 16:34:39;;;;;;;5.65;2.53;;;;;;;;;;10488389;28;20047;-76
2023/08/18 16:39:41;;;;;;;9.57;2.50;;;;;;;;;;10488644;28;20064;-76
2023/08/18 16:44:46;;;;;;;3.92;2.30;;;;;;;;;;10492819;28;20037;-76
2023/08/18 16:49:48;;;;;;;5.13;2.40;;;;;;;;;;10484661;28;20032;-76
2023/08/18 16:54:51;;;;;;;3.40;2.10;;;;;;;;;;10485810;28;20127;-76
2023/08/18 16:59:55;;;;;;;4.57;2.20;;;;;;;;;;10487283;28;20151;-76
2023/08/18 17:04:58;;;;;;;5.97;2.22;;;;;;;;;;10485509;28;20037;-76
2023/08/18 17:10:00;;;;;;;6.60;2.88;;;;;;;;;;10489556;28;20079;-76
2023/08/18 17:15:05;;;;;;;3.63;2.33;;;;;;;;;;10487199;28;20036;-76
2023/08/18 17:20:08;;;;;;;5.28;2.75;;;;;;;;;;10487790;28;20047;-75
2023/08/18 17:25:11;;;;;;;4.30;2.40;;;;;;;;;;10490869;28;20042;-76
2023/08/18 17:30:15;;;;;;;4.22;2.45;;;;;;;;;;10486904;28;20067;-75
2023/08/18 17:35:18;;;;;;;4.05;2.40;;;;;;;;;;10489219;28;20040;-77
2023/08/18 17:40:20;;;;;;;4.30;2.75;;;;;;;;;;10487908;28;20110;-77
2023/08/18 17:45:25;;;;;;;4.95;2.45;;;;;;;;;;10480340;28;20051;-77
2023/08/18 17:50:28;;;;;;;3.47;2.00;;;;;;;;;;10486119;28;20041;-77
2023/08/18 17:55:32;;;;;;;4.47;2.33;;;;;;;;;;10483373;28;20211;-78
2023/08/18 18:00:40;;;;;;;3.20;2.25;;;;;;;;;;10488578;28;20127;-77
2023/08/18 18:05:43;;;;;;;4.35;2.50;;;;;;;;;;10477038;28;20584;-77
2023/08/18 18:10:46;;;;;;;5.40;2.70;;;;;;;;;;10478483;28;20482;-77
2023/08/18 18:15:50;;;;;;;4.88;2.30;;;;;;;;;;10474627;28;20044;-79
2023/08/18 18:20:53;;;;;;;4.55;2.40;;;;;;;;;;10482970;28;20037;-79
2023/08/18 18:25:56;;;;;;;5.20;2.30;;;;;;;;;;10484967;28;20499;-78
2023/08/18 18:31:00;;;;;;;4.97;2.53;;;;;;;;;;10485740;28;20486;-77
2023/08/18 18:36:04;;;;;;;3.53;2.50;;;;;;;;;;10484071;28;20112;-77
2023/08/18 18:41:07;;;;;;;3.67;2.55;;;;;;;;;;10483983;28;20043;-77
2023/08/18 18:46:11;;;;;;;4.68;3.03;;;;;;;;;;10480240;28;20052;-77
2023/08/18 18:51:14;;;;;;;4.72;3.03;;;;;;;;;;10488453;28;20738;-78
2023/08/18 18:56:17;;;;;;;3.50;2.67;;;;;;;;;;10483732;28;20055;-77
2023/08/18 19:01:22;;;;;;;4.97;2.47;;;;;;;;;;10480272;28;20123;-77
2023/08/18 19:06:25;;;;;;;3.78;2.53;;;;;;;;;;10475046;28;20036;-77
2023/08/18 19:11:28;;;;;;;5.03;2.30;;;;;;;;;;10482621;28;20042;-78
2023/08/18 19:16:32;;;;;;;5.80;2.35;;;;;;;;;;10483465;28;20036;-77
2023/08/18 19:21:35;;;;;;;5.95;2.75;;;;;;;;;;10484992;28;20328;-78
2023/08/18 19:26:38;;;;;;;6.72;2.88;;;;;;;;;;10483874;28;20145;-77
2023/08/18 19:31:42;;;;;;;5.38;2.80;;;;;;;;;;10482802;28;20119;-77
2023/08/18 19:36:49;;;;;;;8.27;2.75;;;;;;;;;;10481130;28;20059;-78
2023/08/18 19:41:52;;;;;;;5.50;2.70;;;;;;;;;;10477849;28;20040;-78
2023/08/18 19:46:56;;;;;;;6.15;2.90;;;;;;;;;;10474947;28;20054;-77
2023/08/18 19:51:59;;;;;;;5.60;2.70;;;;;;;;;;10479473;28;20458;-78
2023/08/18 19:57:03;;;;;;;5.90;3.03;;;;;;;;;;10479201;28;20044;-77
2023/08/18 20:02:07;;;;;;;3.92;2.90;;;;;;;;;;10477742;28;20409;-82
2023/08/18 20:07:09;;;;;;;6.47;3.22;;;;;;;;;;10482442;28;20102;-77
2023/08/18 20:12:12;;;;;;;5.40;3.42;;;;;;;;;;10476702;28;20946;-77
2023/08/18 20:17:16;;;;;;;7.03;3.20;;;;;;;;;;10486907;28;20162;-76
2023/08/18 20:22:21;;;;;;;6.18;3.25;;;;;;;;;;10484720;28;20043;-76
2023/08/18 20:27:24;;;;;;;6.30;4.05;;;;;;;;;;10482005;28;20109;-77
2023/08/18 20:32:28;;;;;;;17.35;8.32;;;;;;;;;;10483279;28;20048;-76
2023/08/18 20:37:31;;;;;;;10.02;4.20;;;;;;;;;;10486819;28;20540;-73
2023/08/18 20:42:36;;;;;;;6.32;3.42;;;;;;;;;;10480391;28;20056;-75
2023/08/18 20:47:39;;;;;;;6.55;3.35;;;;;;;;;;10488501;28;20037;-75
2023/08/18 20:52:42;;;;;;;9.27;3.38;;;;;;;;;;10494834;28;20106;-78
2023/08/18 20:57:45;;;;;;;9.30;3.40;;;;;;;;;;10499636;28;20041;-76
2023/08/18 21:02:49;;;;;;;8.27;3.50;;;;;;;;;;10493115;28;20522;-77
2023/08/18 21:07:52;;;;;;;6.65;3.58;;;;;;;;;;10493797;28;20076;-78
2023/08/18 21:12:55;;;;;;;7.03;4.20;;;;;;;;;;10485426;28;20043;-78
2023/08/18 21:17:57;;;;;;;;;;;;;;;;;;10485988;28;20112;-77
2023/08/18 21:23:02;;;;;;;6.00;3.20;;;;;;;;;;10484206;28;19926;-77
2023/08/18 21:28:05;;;;;;;9.13;3.55;;;;;;;;;;10490972;28;20048;-77
2023/08/18 21:33:08;;;;;;;5.18;3.10;;;;;;;;;;10488334;28;20051;-77
2023/08/18 21:38:13;;;;;;;5.97;3.30;;;;;;;;;;10486245;28;20445;-77
2023/08/18 21:43:16;;;;;;;8.32;3.58;;;;;;;;;;10486538;28;20128;-76
2023/08/18 21:48:19;;;;;;;;;;;;;;;;;;10475228;28;20127;-76
2023/08/18 21:53:23;;;;;;;9.83;3.70;;;;;;;;;;10496675;28;19924;-76
2023/08/18 21:58:27;;;;;;;6.35;3.55;;;;;;;;;;10484475;28;20298;-76
2023/08/18 22:03:30;;;;;;;4.78;3.20;;;;;;;;;;10485419;28;20064;-77
2023/08/18 22:08:33;;;;;;;;;;;;;;;;;;10491688;28;20412;-75
2023/08/18 22:13:37;;;;;;;7.70;3.65;;;;;;;;;;10483003;28;19920;-75
2023/08/18 22:18:40;;;;;;;6.85;3.60;;;;;;;;;;10487932;28;20055;-76
2023/08/18 22:23:43;;;;;;;6.82;3.60;;;;;;;;;;10483123;28;20083;-76
2023/08/18 22:28:47;;;;;;;5.78;3.22;;;;;;;;;;10481135;28;20106;-76
2023/08/18 22:33:50;;;;;;;5.95;3.10;;;;;;;;;;10477619;28;20119;-77
2023/08/18 22:38:53;;;;;;;7.65;3.35;;;;;;;;;;10485328;28;20048;-77
2023/08/18 22:43:57;;;;;;;6.78;3.50;;;;;;;;;;10485295;28;20108;-76
2023/08/18 22:49:00;;;;;;;5.45;3.50;;;;;;;;;;10487201;28;20123;-76
2023/08/18 22:54:03;;;;;;;5.88;3.60;;;;;;;;;;10480748;28;20151;-77
2023/08/18 22:59:07;;;;;;;7.63;3.72;;;;;;;;;;10477446;28;20111;-77
2023/08/18 23:04:10;;;;;;;6.25;3.55;;;;;;;;;;10478761;28;20042;-77
2023/08/18 23:09:13;;;;;;;10.63;4.15;;;;;;;;;;10476417;28;20515;-77
2023/08/18 23:14:18;;;;;;;6.18;3.08;;;;;;;;;;10476316;28;20075;-76
2023/08/18 23:19:21;;;;;;;6.22;3.25;;;;;;;;;;10478171;28;20060;-78
2023/08/18 23:24:23;;;;;;;5.70;3.22;;;;;;;;;;10480218;28;20127;-75
2023/08/18 23:29:28;;;;;;;5.90;3.60;;;;;;;;;;10480326;28;20044;-77
2023/08/18 23:34:31;;;;;;;6.95;3.63;;;;;;;;;;10480269;28;20072;-76
2023/08/18 23:39:34;;;;;;;;;;;;;;;;;;10483849;28;20041;-76
2023/08/18 23:44:39;;;;;;;6.53;3.73;;;;;;;;;;10471293;28;20018;-76
2023/08/18 23:49:42;;;;;;;6.55;3.78;;;;;;;;;;10479801;28;20124;-75
2023/08/18 23:54:45;;;;;;;6.20;3.90;;;;;;;;;;10487493;28;20037;-77
2023/08/18 23:59:49;;;;;;;3.63;2.35;;;;;;;;;;10490475;28;20114;-77
